Time;durP1;ratioP1;P1;durP2;ratioP2;P2;SDS_P1;SDS_P2;PMS_P1;PMS_P2;Temp;Humidity;BMP_temperature;BMP_pressure;BME280_temperature;BME280_humidity;BME280_pressure;Samples;Min_cycle;Max_cycle;Signal;HPM_P1;HPM_P2
2023/12/06 07:20:17;;;;;;;;;;;;;;;-5.12;100.00;101153.06;1807013;79;20413;-71
2023/12/06 07:22:44;;;;;;;;;;;;;;;-5.08;100.00;101151.05;1817825;79;20458;-77
2023/12/06 07:25:15;;;;;;;;;;;;;;;-5.04;100.00;101152.84;1811095;79;20379;-72
2023/12/06 07:27:45;;;;;;;;;;;;;;;-4.99;100.00;101155.50;1821322;79;20399;-74
2023/12/06 07:30:15;;;;;;;;;;;;;;;-4.94;100.00;101150.55;1810777;79;20144;-73
2023/12/06 07:32:42;;;;;;;;;;;;;;;-4.91;100.00;101155.29;1812654;79;20360;-72
2023/12/06 07:35:10;;;;;;;;;;;;;;;-4.88;100.00;101149.42;1811183;79;20122;-75
2023/12/06 07:37:36;;;;;;;;;;;;;;;-4.83;100.00;101152.53;1810172;77;20165;-70
2023/12/06 07:40:07;;;;;;;;;;;;;;;-4.74;100.00;101154.41;1812289;79;20094;-69
2023/12/06 07:42:33;;;;;;;;;;;;;;;-4.71;100.00;101154.47;1817890;79;20126;-72
2023/12/06 07:45:00;;;;;;;;;;;;;;;-4.68;100.00;101162.58;1816531;79;20134;-74
2023/12/06 07:47:26;;;;;;;;;;;;;;;-4.65;100.00;101153.35;1820957;79;20090;-71
2023/12/06 07:49:53;;;;;;;;;;;;;;;-4.62;100.00;101157.64;1810943;78;20109;-75
2023/12/06 07:52:20;;;;;;;;;;;;;;;-4.59;100.00;101157.72;1791699;79;20444;-75
2023/12/06 07:54:47;;;;;;;;;;;;;;;-4.54;100.00;101171.40;1820200;79;20598;-74
2023/12/06 08:22:41;;;;;;;;;;;;;;;-4.04;100.00;101182.28;1836205;77;20127;-68
2023/12/06 08:25:08;;;;;;;;;;;;;;;-4.01;100.00;101175.13;1835659;78;20097;-72
2023/12/06 08:27:36;;;;;;;;;;;;;;;-3.98;100.00;101178.12;1862306;77;20118;-76
2023/12/06 08:30:03;;;;;;;;;;;;;;;-4.00;100.00;101174.30;1835574;77;20129;-74
2023/12/06 08:32:30;;;;;;;;;;;;;;;-4.00;100.00;101173.03;1840351;77;20109;-71
2023/12/06 08:35:01;;;;;;;;;;;;;;;-3.98;100.00;101167.94;1847756;77;20105;-74
2023/12/06 08:37:27;;;;;;;;;;;;;;;-3.91;100.00;101178.28;1842805;77;20287;-73
2023/12/06 08:39:54;;;;;;;;;;;;;;;-3.84;100.00;101169.09;1838964;77;20136;-75
2023/12/06 08:42:21;;;;;;;;;;;;;;;-3.83;100.00;101162.77;1840210;77;20222;-75
2023/12/06 08:44:48;;;;;;;;;;;;;;;-3.84;100.00;101162.32;1852267;77;20118;-77
2023/12/06 08:47:15;;;;;;;;;;;;;;;-3.85;100.00;101166.97;1836799;77;20145;-76
2023/12/06 08:49:43;;;;;;;;;;;;;;;-3.83;100.00;101160.63;1842225;77;20097;-78
2023/12/06 08:52:10;;;;;;;;;;;;;;;-3.84;100.00;101155.10;1844747;77;20410;-74
2023/12/06 08:54:38;;;;;;;;;;;;;;;-3.79;100.00;101169.64;1843153;77;20127;-74
2023/12/06 08:57:06;;;;;;;;;;;;;;;-3.75;100.00;101164.20;1839483;77;20116;-73
2023/12/06 08:59:34;;;;;;;;;;;;;;;-3.71;100.00;101166.84;1844608;77;20123;-74
2023/12/06 09:02:01;;;;;;;;;;;;;;;-3.66;100.00;101158.44;1826408;78;20123;-79
2023/12/06 09:04:28;;;;;;;;;;;;;;;-3.60;100.00;101151.78;1843759;77;20561;-73
2023/12/06 09:06:54;;;;;;;;;;;;;;;-3.53;100.00;101156.55;1841629;77;20375;-73
2023/12/06 09:09:21;;;;;;;;;;;;;;;-3.46;100.00;101158.38;1840804;77;20120;-72
2023/12/06 09:11:47;;;;;;;;;;;;;;;-3.37;100.00;101160.69;1829958;77;20094;-74
2023/12/06 09:14:14;;;;;;;;;;;;;;;-3.24;100.00;101162.20;1820740;77;20188;-75
2023/12/06 09:47:17;;;;;;;;;;;;;;;-2.19;100.00;101148.53;1831749;77;20132;-73
2023/12/06 09:49:44;;;;;;;;;;;;;;;-2.19;100.00;101153.21;1830198;77;20100;-72
2023/12/06 09:52:11;;;;;;;;;;;;;;;-2.22;100.00;101152.31;1834019;77;20104;-75
2023/12/06 09:54:40;;;;;;;;;;;;;;;-2.28;100.00;101139.05;1842175;77;20396;-77
2023/12/06 09:57:06;;;;;;;;;;;;;;;-2.31;100.00;101137.73;1821177;77;20440;-72
2023/12/06 09:59:33;;;;;;;;;;;;;;;-2.35;100.00;101129.17;1836220;77;20088;-72
2023/12/06 10:01:59;;;;;;;;;;;;;;;-2.37;100.00;101135.95;1842065;77;20100;-73
2023/12/06 10:04:26;;;;;;;;;;;;;;;-2.36;100.00;101137.66;1825854;77;20121;-74
2023/12/06 10:06:54;;;;;;;;;;;;;;;-2.40;100.00;101138.45;1821343;77;20093;-73
2023/12/06 10:09:36;;;;;;;;;;;;;;;-2.38;100.00;101143.58;1827122;77;20113;-72
2023/12/06 10:12:10;;;;;;;;;;;;;;;-2.36;100.00;101142.77;1820593;78;20128;-72
2023/12/06 10:14:37;;;;;;;;;;;;;;;-2.29;100.00;101146.67;1819246;78;20475;-71
2023/12/06 10:17:05;;;;;;;;;;;;;;;-2.24;100.00;101146.33;1814984;78;20181;-76
2023/12/06 12:10:48;;;;;;;;;;;;;;;-3.24;100.00;101120.17;1825199;79;20105;-69
2023/12/06 12:13:23;;;;;;;;;;;;;;;-3.27;100.00;101120.11;1843711;78;20155;-67
2023/12/06 12:15:52;;;;;;;;;;;;;;;-3.31;100.00;101120.89;1808577;77;20478;-77
2023/12/06 12:18:20;;;;;;;;;;;;;;;-3.34;100.00;101115.33;1782759;78;20151;-69
2023/12/06 12:21:00;;;;;;;;;;;;;;;-3.37;100.00;101117.40;1794075;80;20135;-73
2023/12/06 12:23:28;;;;;;;;;;;;;;;-3.39;100.00;101115.23;1790983;77;20170;-69
2023/12/06 12:25:55;;;;;;;;;;;;;;;-3.44;100.00;101118.53;1811883;77;20195;-70
2023/12/06 12:28:24;;;;;;;;;;;;;;;-3.49;100.00;101109.95;1805286;77;20205;-75
2023/12/06 12:31:03;;;;;;;;;;;;;;;-3.53;100.00;101111.58;1814366;77;20086;-71
2023/12/06 12:33:29;;;;;;;;;;;;;;;-3.55;100.00;101116.20;1756895;82;20161;-69
2023/12/06 12:35:56;;;;;;;;;;;;;;;-3.56;100.00;101115.34;1756937;82;20118;-72
2023/12/06 12:38:23;;;;;;;;;;;;;;;-3.56;100.00;101122.98;1726520;82;20136;-73
2023/12/06 12:40:52;;;;;;;;;;;;;;;-3.60;100.00;101117.83;1746861;81;20175;-74
2023/12/06 12:43:18;;;;;;;;;;;;;;;-3.66;100.00;101119.84;1773562;80;20169;-74
2023/12/06 12:48:12;;;;;;;;;;;;;;;-3.78;100.00;101129.36;1729769;82;20119;-71
2023/12/06 12:50:39;;;;;;;;;;;;;;;-3.83;100.00;101133.50;1730273;80;20148;-71
2023/12/06 12:53:08;;;;;;;;;;;;;;;-3.88;100.00;101125.33;1778648;79;20170;-74
2023/12/06 12:55:36;;;;;;;;;;;;;;;-3.93;100.00;101126.52;1771893;79;20171;-76
2023/12/06 12:58:05;;;;;;;;;;;;;;;-3.95;100.00;101122.22;1741202;82;20123;-71
2023/12/06 14:03:15;;;;;;;;;;;;;;;-5.00;100.00;101149.98;1739728;82;20372;-75
2023/12/06 14:05:42;;;;;;;;;;;;;;;-5.04;100.00;101145.23;1754163;81;20091;-75
2023/12/06 14:08:11;;;;;;;;;;;;;;;-5.08;100.00;101143.44;1748419;81;20124;-72
2023/12/06 14:10:37;;;;;;;;;;;;;;;-5.09;100.00;101147.20;1743786;81;20118;-75
2023/12/06 14:13:03;;;;;;;;;;;;;;;-5.08;100.00;101147.66;1771954;80;20110;-73
2023/12/06 14:15:32;;;;;;;;;;;;;;;-5.09;100.00;101147.20;1758837;80;20135;-74
2023/12/06 14:17:59;;;;;;;;;;;;;;;-5.10;100.00;101146.75;1767949;80;20139;-75
2023/12/06 14:20:26;;;;;;;;;;;;;;;-5.14;100.00;101144.95;1768303;80;20131;-70
2023/12/06 14:22:53;;;;;;;;;;;;;;;-5.16;100.00;101142.37;1764011;80;20115;-71
2023/12/06 14:35:21;;;;;;;;;;;;;;;-5.37;100.00;101143.98;1762030;80;20197;-73
2023/12/06 14:37:49;;;;;;;;;;;;;;;-5.38;100.00;101150.28;1761376;80;20136;-73
2023/12/06 14:40:19;;;;;;;;;;;;;;;-5.41;100.00;101146.39;1761781;80;20169;-76
2023/12/06 14:42:46;;;;;;;;;;;;;;;-5.43;100.00;101153.11;1768842;80;20144;-73
2023/12/06 14:52:48;;;;;;;;;;;;;;;-5.63;100.00;101163.16;1769481;80;20281;-73
2023/12/06 14:55:14;;;;;;;;;;;;;;;-5.69;100.00;101163.84;1766483;80;20115;-72
2023/12/06 15:15:15;;;;;;;;;;;;;;;-6.11;100.00;101161.84;1786685;80;20131;-69
2023/12/06 15:17:42;;;;;;;;;;;;;;;-6.12;100.00;101163.07;1786358;80;20136;-70
2023/12/06 15:20:10;;;;;;;;;;;;;;;-6.14;100.00;101164.70;1788060;80;20120;-68
